sensor_id;sensor_type;location;lat;lon;timestamp;noise_LAeq;noise_LA_min;noise_LA_max;noise_LA01;noise_LA95
73663;Laerm;61956;52.540;13.382;2023-03-19T00:01:59;54.57;51.89;57.30;;
73663;Laerm;61956;52.540;13.382;2023-03-19T00:04:31;54.47;51.85;57.76;;
73663;Laerm;61956;52.540;13.382;2023-03-19T00:07:00;54.51;51.86;57.17;;
73663;Laerm;61956;52.540;13.382;2023-03-19T00:09:30;54.54;51.66;58.18;;
73663;Laerm;61956;52.540;13.382;2023-03-19T00:11:59;54.62;51.68;57.33;;
73663;Laerm;61956;52.540;13.382;2023-03-19T00:14:31;54.61;51.69;57.84;;
73663;Laerm;61956;52.540;13.382;2023-03-19T00:17:02;54.55;51.60;57.88;;
73663;Laerm;61956;52.540;13.382;2023-03-19T00:19:35;54.68;51.77;57.80;;
73663;Laerm;61956;52.540;13.382;2023-03-19T00:22:05;54.63;51.12;58.16;;
73663;Laerm;61956;52.540;13.382;2023-03-19T00:24:34;54.65;51.26;57.56;;
73663;Laerm;61956;52.540;13.382;2023-03-19T00:27:03;54.51;50.83;59.18;;
73663;Laerm;61956;52.540;13.382;2023-03-19T00:29:33;54.53;50.74;58.52;;
73663;Laerm;61956;52.540;13.382;2023-03-19T00:32:03;54.55;50.84;58.68;;
73663;Laerm;61956;52.540;13.382;2023-03-19T00:34:35;54.48;50.70;58.21;;
73663;Laerm;61956;52.540;13.382;2023-03-19T00:37:05;54.47;50.71;58.46;;
73663;Laerm;61956;52.540;13.382;2023-03-19T00:39:34;54.46;50.67;58.04;;
73663;Laerm;61956;52.540;13.382;2023-03-19T00:42:04;54.41;50.96;60.95;;
73663;Laerm;61956;52.540;13.382;2023-03-19T00:44:34;54.42;51.06;58.04;;
73663;Laerm;61956;52.540;13.382;2023-03-19T00:47:03;54.67;51.39;58.08;;
73663;Laerm;61956;52.540;13.382;2023-03-19T00:49:35;54.56;51.58;57.93;;
73663;Laerm;61956;52.540;13.382;2023-03-19T00:52:04;54.45;51.23;58.64;;
73663;Laerm;61956;52.540;13.382;2023-03-19T00:54:34;54.44;51.10;58.08;;
73663;Laerm;61956;52.540;13.382;2023-03-19T00:57:03;54.45;50.79;58.51;;
73663;Laerm;61956;52.540;13.382;2023-03-19T00:59:33;54.46;51.26;58.22;;
73663;Laerm;61956;52.540;13.382;2023-03-19T01:02:03;54.62;50.91;58.50;;
73663;Laerm;61956;52.540;13.382;2023-03-19T01:04:35;54.56;51.01;58.69;;
73663;Laerm;61956;52.540;13.382;2023-03-19T01:07:04;54.46;50.98;58.46;;
73663;Laerm;61956;52.540;13.382;2023-03-19T01:09:34;54.45;50.79;58.52;;
73663;Laerm;61956;52.540;13.382;2023-03-19T01:12:04;54.45;50.96;58.30;;
73663;Laerm;61956;52.540;13.382;2023-03-19T01:14:34;54.43;50.74;58.57;;
73663;Laerm;61956;52.540;13.382;2023-03-19T01:17:03;54.45;50.90;58.25;;
73663;Laerm;61956;52.540;13.382;2023-03-19T01:19:35;54.63;51.43;57.95;;
73663;Laerm;61956;52.540;13.382;2023-03-19T01:22:06;54.51;51.40;58.77;;
73663;Laerm;61956;52.540;13.382;2023-03-19T01:24:36;54.54;51.23;58.55;;
73663;Laerm;61956;52.540;13.382;2023-03-19T01:27:06;54.48;51.17;58.43;;
73663;Laerm;61956;52.540;13.382;2023-03-19T01:29:35;54.48;51.41;58.75;;
73663;Laerm;61956;52.540;13.382;2023-03-19T01:32:12;54.49;51.32;57.93;;
73663;Laerm;61956;52.540;13.382;2023-03-19T01:35:03;54.52;51.28;58.24;;
73663;Laerm;61956;52.540;13.382;2023-03-19T01:37:33;54.46;51.53;58.03;;
73663;Laerm;61956;52.540;13.382;2023-03-19T01:40:04;54.47;51.55;59.59;;
73663;Laerm;61956;52.540;13.382;2023-03-19T01:42:51;54.50;51.72;58.11;;
73663;Laerm;61956;52.540;13.382;2023-03-19T01:45:46;54.49;51.45;58.67;;
73663;Laerm;61956;52.540;13.382;2023-03-19T01:48:53;54.51;51.45;58.54;;
73663;Laerm;61956;52.540;13.382;2023-03-19T01:51:33;54.59;51.35;57.97;;
73663;Laerm;61956;52.540;13.382;2023-03-19T01:54:19;54.44;51.08;58.46;;
73663;Laerm;61956;52.540;13.382;2023-03-19T01:56:59;54.50;51.23;58.09;;
73663;Laerm;61956;52.540;13.382;2023-03-19T02:00:11;54.72;50.74;59.05;;
73663;Laerm;61956;52.540;13.382;2023-03-19T02:02:46;54.63;50.79;59.42;;
73663;Laerm;61956;52.540;13.382;2023-03-19T02:05:33;54.56;50.87;59.30;;
73663;Laerm;61956;52.540;13.382;2023-03-19T02:08:14;54.58;50.84;58.55;;
73663;Laerm;61956;52.540;13.382;2023-03-19T02:10:46;55.02;50.89;64.38;;
73663;Laerm;61956;52.540;13.382;2023-03-19T02:13:16;57.78;51.52;68.36;;
73663;Laerm;61956;52.540;13.382;2023-03-19T02:15:45;54.55;51.51;65.71;;
73663;Laerm;61956;52.540;13.382;2023-03-19T02:18:14;54.66;50.85;63.83;;
73663;Laerm;61956;52.540;13.382;2023-03-19T02:20:54;54.75;50.54;59.06;;
73663;Laerm;61956;52.540;13.382;2023-03-19T02:23:36;54.70;50.55;59.01;;
73663;Laerm;61956;52.540;13.382;2023-03-19T02:26:21;54.72;50.70;59.10;;
73663;Laerm;61956;52.540;13.382;2023-03-19T02:28:52;54.55;50.60;58.59;;
73663;Laerm;61956;52.540;13.382;2023-03-19T02:31:27;54.67;50.92;58.27;;
73663;Laerm;61956;52.540;13.382;2023-03-19T02:34:00;54.55;50.88;58.85;;
73663;Laerm;61956;52.540;13.382;2023-03-19T02:36:34;54.43;50.84;58.27;;
73663;Laerm;61956;52.540;13.382;2023-03-19T02:39:12;54.41;51.02;58.61;;
73663;Laerm;61956;52.540;13.382;2023-03-19T02:41:48;54.49;51.36;58.74;;
73663;Laerm;61956;52.540;13.382;2023-03-19T02:44:18;54.44;51.30;59.75;;
73663;Laerm;61956;52.540;13.382;2023-03-19T02:46:49;54.71;51.58;57.75;;
73663;Laerm;61956;52.540;13.382;2023-03-19T02:49:19;54.55;50.99;58.62;;
73663;Laerm;61956;52.540;13.382;2023-03-19T02:51:49;54.50;50.46;58.24;;
73663;Laerm;61956;52.540;13.382;2023-03-19T02:54:18;54.49;51.05;58.57;;
73663;Laerm;61956;52.540;13.382;2023-03-19T02:56:50;54.62;51.61;57.89;;
73663;Laerm;61956;52.540;13.382;2023-03-19T02:59:19;54.47;51.16;58.15;;
73663;Laerm;61956;52.540;13.382;2023-03-19T03:01:49;54.42;50.91;58.31;;
73663;Laerm;61956;52.540;13.382;2023-03-19T03:04:18;54.51;50.93;58.86;;
73663;Laerm;61956;52.540;13.382;2023-03-19T03:06:47;54.41;50.90;58.52;;
73663;Laerm;61956;52.540;13.382;2023-03-19T03:09:16;54.43;50.92;58.13;;
73663;Laerm;61956;52.540;13.382;2023-03-19T03:11:49;54.40;50.98;58.33;;
73663;Laerm;61956;52.540;13.382;2023-03-19T03:14:18;54.49;51.14;58.26;;
73663;Laerm;61956;52.540;13.382;2023-03-19T03:16:48;54.43;51.01;58.30;;
73663;Laerm;61956;52.540;13.382;2023-03-19T03:19:17;54.43;50.77;58.34;;
73663;Laerm;61956;52.540;13.382;2023-03-19T03:21:47;54.44;51.29;57.93;;
73663;Laerm;61956;52.540;13.382;2023-03-19T03:24:16;54.58;51.68;58.22;;
73663;Laerm;61956;52.540;13.382;2023-03-19T03:26:45;54.45;51.02;58.61;;
73663;Laerm;61956;52.540;13.382;2023-03-19T03:29:17;54.50;51.03;59.85;;
73663;Laerm;61956;52.540;13.382;2023-03-19T03:31:47;54.57;51.02;58.81;;
73663;Laerm;61956;52.540;13.382;2023-03-19T03:34:16;54.45;51.05;58.32;;
73663;Laerm;61956;52.540;13.382;2023-03-19T03:36:45;54.45;51.22;58.45;;
73663;Laerm;61956;52.540;13.382;2023-03-19T03:39:14;54.51;51.07;58.75;;
73663;Laerm;61956;52.540;13.382;2023-03-19T03:41:44;54.46;51.33;58.17;;
73663;Laerm;61956;52.540;13.382;2023-03-19T03:44:14;54.47;51.37;58.04;;
73663;Laerm;61956;52.540;13.382;2023-03-19T03:46:46;54.65;51.43;58.20;;
73663;Laerm;61956;52.540;13.382;2023-03-19T03:49:15;54.57;51.77;58.16;;
73663;Laerm;61956;52.540;13.382;2023-03-19T03:51:45;54.48;51.40;58.56;;
73663;Laerm;61956;52.540;13.382;2023-03-19T03:54:15;54.50;51.46;58.51;;
73663;Laerm;61956;52.540;13.382;2023-03-19T03:56:44;54.53;51.80;64.24;;
73663;Laerm;61956;52.540;13.382;2023-03-19T03:59:15;54.59;51.41;64.29;;
73663;Laerm;61956;52.540;13.382;2023-03-19T04:01:47;54.60;51.60;58.18;;
73663;Laerm;61956;52.540;13.382;2023-03-19T04:04:17;54.58;51.90;66.31;;
73663;Laerm;61956;52.540;13.382;2023-03-19T04:06:47;54.61;51.81;57.98;;
73663;Laerm;61956;52.540;13.382;2023-03-19T04:09:42;54.67;51.94;58.26;;
73663;Laerm;61956;52.540;13.382;2023-03-19T04:12:13;54.71;51.85;58.45;;
73663;Laerm;61956;52.540;13.382;2023-03-19T04:14:42;54.60;51.31;58.64;;
73663;Laerm;61956;52.540;13.382;2023-03-19T04:17:14;54.58;51.52;58.09;;
73663;Laerm;61956;52.540;13.382;2023-03-19T04:19:43;54.60;51.51;58.18;;
73663;Laerm;61956;52.540;13.382;2023-03-19T04:22:12;54.66;50.96;59.03;;
73663;Laerm;61956;52.540;13.382;2023-03-19T04:24:42;54.68;51.04;58.66;;
73663;Laerm;61956;52.540;13.382;2023-03-19T04:27:11;54.75;50.86;59.23;;
73663;Laerm;61956;52.540;13.382;2023-03-19T04:29:41;54.82;50.99;60.01;;
73663;Laerm;61956;52.540;13.382;2023-03-19T04:32:10;54.59;50.96;58.68;;
73663;Laerm;61956;52.540;13.382;2023-03-19T04:37:12;55.01;51.46;58.07;;
73663;Laerm;61956;52.540;13.382;2023-03-19T04:39:46;55.05;51.57;60.44;;
73663;Laerm;61956;52.540;13.382;2023-03-19T04:42:16;54.67;51.33;57.78;;
73663;Laerm;61956;52.540;13.382;2023-03-19T04:45:00;54.25;50.99;57.77;;
73663;Laerm;61956;52.540;13.382;2023-03-19T04:47:30;54.76;51.12;57.96;;
73663;Laerm;61956;52.540;13.382;2023-03-19T04:50:04;54.24;51.08;56.35;;
73663;Laerm;61956;52.540;13.382;2023-03-19T04:52:35;54.16;51.06;57.51;;
73663;Laerm;61956;52.540;13.382;2023-03-19T04:55:06;54.40;51.43;58.03;;
73663;Laerm;61956;52.540;13.382;2023-03-19T04:57:47;54.83;52.07;58.92;;
73663;Laerm;61956;52.540;13.382;2023-03-19T05:00:19;54.31;51.57;56.71;;
73663;Laerm;61956;52.540;13.382;2023-03-19T05:02:48;54.02;51.40;56.27;;
73663;Laerm;61956;52.540;13.382;2023-03-19T05:05:20;54.09;51.57;64.31;;
73663;Laerm;61956;52.540;13.382;2023-03-19T05:07:49;54.20;51.92;56.67;;
73663;Laerm;61956;52.540;13.382;2023-03-19T05:10:19;54.94;52.31;57.67;;
73663;Laerm;61956;52.540;13.382;2023-03-19T05:12:49;54.88;52.20;67.70;;
73663;Laerm;61956;52.540;13.382;2023-03-19T05:15:19;55.25;52.44;69.87;;
73663;Laerm;61956;52.540;13.382;2023-03-19T05:17:58;55.67;53.36;65.00;;
73663;Laerm;61956;52.540;13.382;2023-03-19T05:20:41;55.94;53.04;71.07;;
73663;Laerm;61956;52.540;13.382;2023-03-19T05:23:17;55.12;52.14;64.97;;
73663;Laerm;61956;52.540;13.382;2023-03-19T05:25:57;56.25;52.44;65.39;;
73663;Laerm;61956;52.540;13.382;2023-03-19T05:28:45;56.88;53.93;66.62;;
73663;Laerm;61956;52.540;13.382;2023-03-19T05:31:18;56.96;53.21;66.37;;
73663;Laerm;61956;52.540;13.382;2023-03-19T05:33:51;55.30;51.93;69.47;;
73663;Laerm;61956;52.540;13.382;2023-03-19T05:36:23;55.03;52.04;71.05;;
73663;Laerm;61956;52.540;13.382;2023-03-19T05:39:16;55.35;52.30;73.48;;
73663;Laerm;61956;52.540;13.382;2023-03-19T05:41:45;55.48;53.06;74.35;;
73663;Laerm;61956;52.540;13.382;2023-03-19T05:44:19;55.59;52.95;71.82;;
73663;Laerm;61956;52.540;13.382;2023-03-19T05:47:11;55.93;53.08;67.74;;
73663;Laerm;61956;52.540;13.382;2023-03-19T05:49:45;55.86;53.12;73.13;;
73663;Laerm;61956;52.540;13.382;2023-03-19T05:52:17;55.44;52.20;70.85;;
73663;Laerm;61956;52.540;13.382;2023-03-19T05:54:50;55.26;52.29;73.90;;
73663;Laerm;61956;52.540;13.382;2023-03-19T05:57:44;54.84;52.53;68.77;;
73663;Laerm;61956;52.540;13.382;2023-03-19T06:00:19;54.74;52.47;64.20;;
73663;Laerm;61956;52.540;13.382;2023-03-19T06:02:52;54.74;52.59;62.80;;
73663;Laerm;61956;52.540;13.382;2023-03-19T06:05:48;56.96;52.11;72.40;;
73663;Laerm;61956;52.540;13.382;2023-03-19T06:08:32;54.38;52.06;64.92;;
73663;Laerm;61956;52.540;13.382;2023-03-19T06:11:10;54.24;51.90;61.10;;
73663;Laerm;61956;52.540;13.382;2023-03-19T06:13:40;54.37;52.16;63.03;;
73663;Laerm;61956;52.540;13.382;2023-03-19T06:16:15;54.41;51.93;62.41;;
73663;Laerm;61956;52.540;13.382;2023-03-19T06:18:51;54.33;52.06;59.31;;
73663;Laerm;61956;52.540;13.382;2023-03-19T06:21:22;54.28;51.96;63.96;;
73663;Laerm;61956;52.540;13.382;2023-03-19T06:23:58;54.19;51.89;63.85;;
73663;Laerm;61956;52.540;13.382;2023-03-19T06:26:33;54.15;51.74;56.57;;
73663;Laerm;61956;52.540;13.382;2023-03-19T06:29:08;54.10;51.58;56.34;;
73663;Laerm;61956;52.540;13.382;2023-03-19T06:31:39;54.09;51.71;57.11;;
73663;Laerm;61956;52.540;13.382;2023-03-19T06:34:29;54.16;51.32;57.80;;
73663;Laerm;61956;52.540;13.382;2023-03-19T06:36:58;54.02;51.48;57.85;;
73663;Laerm;61956;52.540;13.382;2023-03-19T06:39:30;55.91;51.12;74.93;;
73663;Laerm;61956;52.540;13.382;2023-03-19T06:42:00;54.08;51.09;56.71;;
73663;Laerm;61956;52.540;13.382;2023-03-19T06:44:29;54.00;51.24;58.78;;
73663;Laerm;61956;52.540;13.382;2023-03-19T06:46:58;53.93;51.03;56.80;;
73663;Laerm;61956;52.540;13.382;2023-03-19T06:49:28;53.95;51.12;56.65;;
73663;Laerm;61956;52.540;13.382;2023-03-19T06:51:58;54.10;51.36;57.89;;
73663;Laerm;61956;52.540;13.382;2023-03-19T06:54:29;54.07;51.39;58.82;;
73663;Laerm;61956;52.540;13.382;2023-03-19T06:56:59;54.07;51.38;56.95;;
73663;Laerm;61956;52.540;13.382;2023-03-19T06:59:28;54.09;51.54;56.96;;
73663;Laerm;61956;52.540;13.382;2023-03-19T07:01:57;54.12;51.74;58.03;;
73663;Laerm;61956;52.540;13.382;2023-03-19T07:04:27;54.19;51.52;56.87;;
73663;Laerm;61956;52.540;13.382;2023-03-19T07:06:56;54.16;51.26;58.57;;
73663;Laerm;61956;52.540;13.382;2023-03-19T07:09:30;54.09;51.45;57.95;;
73663;Laerm;61956;52.540;13.382;2023-03-19T07:11:59;54.50;51.73;59.70;;
73663;Laerm;61956;52.540;13.382;2023-03-19T07:14:28;54.31;52.19;56.61;;
73663;Laerm;61956;52.540;13.382;2023-03-19T07:16:57;54.33;52.36;66.65;;
73663;Laerm;61956;52.540;13.382;2023-03-19T07:19:27;54.35;52.27;56.51;;
73663;Laerm;61956;52.540;13.382;2023-03-19T07:21:56;54.20;51.91;56.66;;
73663;Laerm;61956;52.540;13.382;2023-03-19T07:24:25;54.13;51.78;56.66;;
73663;Laerm;61956;52.540;13.382;2023-03-19T07:26:57;54.18;51.78;57.63;;
73663;Laerm;61956;52.540;13.382;2023-03-19T07:29:27;54.24;51.43;56.98;;
73663;Laerm;61956;52.540;13.382;2023-03-19T07:31:56;54.42;51.84;57.05;;
73663;Laerm;61956;52.540;13.382;2023-03-19T07:34:25;54.86;52.09;60.73;;
73663;Laerm;61956;52.540;13.382;2023-03-19T07:36:54;60.01;56.53;66.61;;
73663;Laerm;61956;52.540;13.382;2023-03-19T07:39:24;63.67;56.58;72.17;;
73663;Laerm;61956;52.540;13.382;2023-03-19T07:41:53;56.40;52.79;68.10;;
73663;Laerm;61956;52.540;13.382;2023-03-19T07:44:25;54.74;52.16;64.60;;
73663;Laerm;61956;52.540;13.382;2023-03-19T07:46:54;54.80;51.89;64.78;;
73663;Laerm;61956;52.540;13.382;2023-03-19T07:49:24;54.63;51.86;60.52;;
73663;Laerm;61956;52.540;13.382;2023-03-19T07:51:53;55.15;52.17;63.33;;
73663;Laerm;61956;52.540;13.382;2023-03-19T07:54:23;55.16;52.52;63.67;;
73663;Laerm;61956;52.540;13.382;2023-03-19T07:56:52;54.82;51.93;62.99;;
73663;Laerm;61956;52.540;13.382;2023-03-19T07:59:21;54.70;51.84;62.38;;
73663;Laerm;61956;52.540;13.382;2023-03-19T08:01:53;54.68;51.70;67.02;;
73663;Laerm;61956;52.540;13.382;2023-03-19T08:04:22;54.63;51.45;64.44;;
73663;Laerm;61956;52.540;13.382;2023-03-19T08:09:21;54.71;50.18;65.70;;
73663;Laerm;61956;52.540;13.382;2023-03-19T08:11:50;55.27;50.64;61.97;;
73663;Laerm;61956;52.540;13.382;2023-03-19T08:14:19;55.92;51.95;78.83;;
73663;Laerm;61956;52.540;13.382;2023-03-19T08:16:49;55.98;51.51;66.43;;
73663;Laerm;61956;52.540;13.382;2023-03-19T08:19:21;56.43;52.70;69.24;;
73663;Laerm;61956;52.540;13.382;2023-03-19T08:21:50;55.05;50.55;63.58;;
73663;Laerm;61956;52.540;13.382;2023-03-19T08:24:20;54.52;49.91;67.00;;
73663;Laerm;61956;52.540;13.382;2023-03-19T08:26:49;54.59;50.11;69.98;;
73663;Laerm;61956;52.540;13.382;2023-03-19T08:29:18;53.98;49.48;61.36;;
73663;Laerm;61956;52.540;13.382;2023-03-19T08:31:47;54.19;49.42;60.90;;
73663;Laerm;61956;52.540;13.382;2023-03-19T08:34:17;54.16;49.79;64.56;;
73663;Laerm;61956;52.540;13.382;2023-03-19T08:36:49;53.90;49.68;64.28;;
73663;Laerm;61956;52.540;13.382;2023-03-19T08:39:19;53.97;49.35;60.36;;
73663;Laerm;61956;52.540;13.382;2023-03-19T08:41:49;54.70;50.51;62.63;;
73663;Laerm;61956;52.540;13.382;2023-03-19T08:44:18;55.54;50.28;61.60;;
73663;Laerm;61956;52.540;13.382;2023-03-19T08:46:47;57.84;54.44;67.92;;
73663;Laerm;61956;52.540;13.382;2023-03-19T08:49:16;55.99;51.87;67.18;;
73663;Laerm;61956;52.540;13.382;2023-03-19T08:51:48;56.35;51.57;63.59;;
73663;Laerm;61956;52.540;13.382;2023-03-19T08:54:17;56.87;52.69;66.82;;
73663;Laerm;61956;52.540;13.382;2023-03-19T08:56:46;57.80;54.09;63.46;;
73663;Laerm;61956;52.540;13.382;2023-03-19T08:59:16;57.50;53.81;74.68;;
73663;Laerm;61956;52.540;13.382;2023-03-19T09:01:45;57.48;53.62;68.31;;
73663;Laerm;61956;52.540;13.382;2023-03-19T09:04:18;57.99;54.15;66.14;;
73663;Laerm;61956;52.540;13.382;2023-03-19T09:06:50;59.31;55.73;68.41;;
73663;Laerm;61956;52.540;13.382;2023-03-19T09:09:21;60.11;57.31;67.07;;
73663;Laerm;61956;52.540;13.382;2023-03-19T09:11:51;60.18;56.56;69.71;;
73663;Laerm;61956;52.540;13.382;2023-03-19T09:14:21;57.89;53.84;68.51;;
73663;Laerm;61956;52.540;13.382;2023-03-19T09:16:50;55.53;51.50;67.86;;
73663;Laerm;61956;52.540;13.382;2023-03-19T09:19:20;54.75;51.13;67.97;;
73663;Laerm;61956;52.540;13.382;2023-03-19T09:21:52;54.52;51.36;65.80;;
73663;Laerm;61956;52.540;13.382;2023-03-19T09:24:21;54.54;51.46;63.78;;
73663;Laerm;61956;52.540;13.382;2023-03-19T09:26:51;54.41;51.10;66.51;;
73663;Laerm;61956;52.540;13.382;2023-03-19T09:29:21;54.21;50.67;67.19;;
73663;Laerm;61956;52.540;13.382;2023-03-19T09:31:50;54.18;50.46;62.70;;
73663;Laerm;61956;52.540;13.382;2023-03-19T09:34:19;54.02;50.48;64.99;;
73663;Laerm;61956;52.540;13.382;2023-03-19T09:36:49;53.96;49.48;62.85;;
73663;Laerm;61956;52.540;13.382;2023-03-19T09:39:20;54.02;49.58;61.32;;
73663;Laerm;61956;52.540;13.382;2023-03-19T09:42:04;53.84;49.48;61.64;;
73663;Laerm;61956;52.540;13.382;2023-03-19T09:44:43;53.85;49.40;59.36;;
73663;Laerm;61956;52.540;13.382;2023-03-19T09:47:25;54.13;48.78;60.39;;
73663;Laerm;61956;52.540;13.382;2023-03-19T09:49:56;54.34;48.38;60.86;;
73663;Laerm;61956;52.540;13.382;2023-03-19T09:52:43;53.70;47.60;61.35;;
73663;Laerm;61956;52.540;13.382;2023-03-19T09:55:33;53.94;47.73;61.12;;
73663;Laerm;61956;52.540;13.382;2023-03-19T09:58:12;53.98;48.08;61.47;;
73663;Laerm;61956;52.540;13.382;2023-03-19T10:00:47;53.86;48.14;60.77;;
73663;Laerm;61956;52.540;13.382;2023-03-19T10:03:38;53.71;47.73;61.82;;
73663;Laerm;61956;52.540;13.382;2023-03-19T10:06:25;53.48;47.30;60.41;;
73663;Laerm;61956;52.540;13.382;2023-03-19T10:09:19;53.40;47.12;59.97;;
73663;Laerm;61956;52.540;13.382;2023-03-19T10:12:09;53.34;47.56;60.14;;
73663;Laerm;61956;52.540;13.382;2023-03-19T10:15:16;52.97;46.94;61.13;;
73663;Laerm;61956;52.540;13.382;2023-03-19T10:17:56;52.95;47.04;59.07;;
73663;Laerm;61956;52.540;13.382;2023-03-19T10:20:41;52.36;46.73;59.70;;
73663;Laerm;61956;52.540;13.382;2023-03-19T10:23:28;52.50;46.53;60.82;;
73663;Laerm;61956;52.540;13.382;2023-03-19T10:26:03;53.10;47.35;59.84;;
73663;Laerm;61956;52.540;13.382;2023-03-19T10:28:36;53.00;46.92;59.19;;
73663;Laerm;61956;52.540;13.382;2023-03-19T10:31:22;52.74;46.96;59.34;;
73663;Laerm;61956;52.540;13.382;2023-03-19T10:34:10;53.04;46.76;59.99;;
73663;Laerm;61956;52.540;13.382;2023-03-19T10:36:41;52.98;47.19;60.06;;
73663;Laerm;61956;52.540;13.382;2023-03-19T10:41:49;50.67;46.36;59.24;;
73663;Laerm;61956;52.540;13.382;2023-03-19T10:44:27;50.89;46.46;58.33;;
73663;Laerm;61956;52.540;13.382;2023-03-19T10:47:03;50.53;46.08;55.65;;
73663;Laerm;61956;52.540;13.382;2023-03-19T10:49:37;50.49;46.05;56.72;;
73663;Laerm;61956;52.540;13.382;2023-03-19T10:52:18;51.05;46.34;57.54;;
73663;Laerm;61956;52.540;13.382;2023-03-19T10:54:54;50.83;46.27;55.85;;
73663;Laerm;61956;52.540;13.382;2023-03-19T10:57:27;50.34;46.22;56.91;;
73663;Laerm;61956;52.540;13.382;2023-03-19T11:00:02;50.55;45.98;65.06;;
73663;Laerm;61956;52.540;13.382;2023-03-19T11:02:45;50.38;46.19;55.56;;
73663;Laerm;61956;52.540;13.382;2023-03-19T11:05:24;50.16;46.07;55.63;;
73663;Laerm;61956;52.540;13.382;2023-03-19T11:08:00;50.23;46.10;55.46;;
73663;Laerm;61956;52.540;13.382;2023-03-19T11:10:33;50.47;45.87;57.01;;
73663;Laerm;61956;52.540;13.382;2023-03-19T11:13:06;51.52;45.84;60.18;;
73663;Laerm;61956;52.540;13.382;2023-03-19T11:15:47;50.15;46.03;59.97;;
73663;Laerm;61956;52.540;13.382;2023-03-19T11:18:21;50.13;45.41;58.53;;
73663;Laerm;61956;52.540;13.382;2023-03-19T11:20:56;50.48;45.94;57.73;;
73663;Laerm;61956;52.540;13.382;2023-03-19T11:23:30;50.41;46.03;62.43;;
73663;Laerm;61956;52.540;13.382;2023-03-19T11:26:05;50.24;45.55;62.51;;
73663;Laerm;61956;52.540;13.382;2023-03-19T11:28:42;50.28;45.96;56.50;;
73663;Laerm;61956;52.540;13.382;2023-03-19T11:31:20;50.30;45.41;61.74;;
73663;Laerm;61956;52.540;13.382;2023-03-19T11:34:10;50.47;46.08;55.85;;
73663;Laerm;61956;52.540;13.382;2023-03-19T11:36:53;50.33;46.03;56.03;;
73663;Laerm;61956;52.540;13.382;2023-03-19T11:39:28;50.15;45.94;54.95;;
73663;Laerm;61956;52.540;13.382;2023-03-19T11:42:25;50.45;45.95;55.35;;
73663;Laerm;61956;52.540;13.382;2023-03-19T11:45:11;50.46;45.91;55.89;;
73663;Laerm;61956;52.540;13.382;2023-03-19T11:47:55;50.39;45.92;67.03;;
73663;Laerm;61956;52.540;13.382;2023-03-19T11:50:37;50.12;45.76;59.11;;
73663;Laerm;61956;52.540;13.382;2023-03-19T11:53:20;50.19;45.98;55.26;;
73663;Laerm;61956;52.540;13.382;2023-03-19T11:56:01;50.36;46.18;58.26;;
73663;Laerm;61956;52.540;13.382;2023-03-19T11:58:54;50.39;46.21;58.97;;
73663;Laerm;61956;52.540;13.382;2023-03-19T12:01:46;50.85;46.75;55.84;;
73663;Laerm;61956;52.540;13.382;2023-03-19T12:04:58;51.27;46.65;57.93;;
73663;Laerm;61956;52.540;13.382;2023-03-19T12:07:34;51.31;46.80;57.32;;
73663;Laerm;61956;52.540;13.382;2023-03-19T12:10:30;51.12;46.74;56.51;;
73663;Laerm;61956;52.540;13.382;2023-03-19T12:13:19;50.92;46.83;55.61;;
73663;Laerm;61956;52.540;13.382;2023-03-19T12:16:01;50.99;46.83;55.20;;
73663;Laerm;61956;52.540;13.382;2023-03-19T12:21:55;51.04;46.94;55.81;;
73663;Laerm;61956;52.540;13.382;2023-03-19T12:24:38;51.54;46.90;59.27;;
73663;Laerm;61956;52.540;13.382;2023-03-19T12:27:27;51.02;46.44;59.92;;
73663;Laerm;61956;52.540;13.382;2023-03-19T12:33:01;51.14;47.00;69.72;;
73663;Laerm;61956;52.540;13.382;2023-03-19T12:35:39;51.66;47.24;64.89;;
73663;Laerm;61956;52.540;13.382;2023-03-19T12:38:19;51.26;47.11;56.12;;
73663;Laerm;61956;52.540;13.382;2023-03-19T12:40:57;51.67;47.27;61.02;;
73663;Laerm;61956;52.540;13.382;2023-03-19T12:43:37;51.65;46.91;57.19;;
73663;Laerm;61956;52.540;13.382;2023-03-19T12:46:13;51.15;46.76;57.31;;
73663;Laerm;61956;52.540;13.382;2023-03-19T12:48:50;51.19;46.97;57.15;;
73663;Laerm;61956;52.540;13.382;2023-03-19T12:51:26;51.28;46.98;56.85;;
73663;Laerm;61956;52.540;13.382;2023-03-19T12:54:03;50.73;46.42;55.02;;
73663;Laerm;61956;52.540;13.382;2023-03-19T12:56:42;50.44;46.27;56.22;;
73663;Laerm;61956;52.540;13.382;2023-03-19T12:59:22;50.29;46.11;54.73;;
73663;Laerm;61956;52.540;13.382;2023-03-19T13:02:00;50.27;46.45;54.82;;
73663;Laerm;61956;52.540;13.382;2023-03-19T13:04:38;50.60;46.48;54.85;;
73663;Laerm;61956;52.540;13.382;2023-03-19T13:07:18;50.75;46.61;55.76;;
73663;Laerm;61956;52.540;13.382;2023-03-19T13:09:58;51.10;47.01;55.54;;
73663;Laerm;61956;52.540;13.382;2023-03-19T13:12:32;51.28;46.93;56.91;;
73663;Laerm;61956;52.540;13.382;2023-03-19T13:15:09;51.03;47.06;55.79;;
73663;Laerm;61956;52.540;13.382;2023-03-19T13:17:54;51.87;46.78;63.74;;
73663;Laerm;61956;52.540;13.382;2023-03-19T13:20:46;51.30;47.02;55.87;;
73663;Laerm;61956;52.540;13.382;2023-03-19T13:23:28;51.23;47.05;56.83;;
73663;Laerm;61956;52.540;13.382;2023-03-19T13:26:08;58.34;46.90;76.65;;
73663;Laerm;61956;52.540;13.382;2023-03-19T13:28:54;51.08;47.00;55.97;;
73663;Laerm;61956;52.540;13.382;2023-03-19T13:31:32;51.17;46.63;56.78;;
73663;Laerm;61956;52.540;13.382;2023-03-19T13:34:05;51.05;47.08;54.90;;
73663;Laerm;61956;52.540;13.382;2023-03-19T13:36:37;51.21;46.90;56.33;;
73663;Laerm;61956;52.540;13.382;2023-03-19T13:39:14;51.70;46.67;58.20;;
73663;Laerm;61956;52.540;13.382;2023-03-19T13:42:08;51.48;47.07;59.46;;
73663;Laerm;61956;52.540;13.382;2023-03-19T13:44:47;51.46;47.21;57.15;;
73663;Laerm;61956;52.540;13.382;2023-03-19T13:47:41;52.26;47.56;59.14;;
73663;Laerm;61956;52.540;13.382;2023-03-19T13:50:28;51.54;47.12;56.93;;
73663;Laerm;61956;52.540;13.382;2023-03-19T13:53:34;51.70;47.30;57.49;;
73663;Laerm;61956;52.540;13.382;2023-03-19T13:56:08;51.55;47.23;56.33;;
73663;Laerm;61956;52.540;13.382;2023-03-19T13:58:50;51.64;47.12;56.17;;
73663;Laerm;61956;52.540;13.382;2023-03-19T14:01:41;51.57;47.27;56.35;;
73663;Laerm;61956;52.540;13.382;2023-03-19T14:04:21;51.48;47.12;56.89;;
73663;Laerm;61956;52.540;13.382;2023-03-19T14:06:55;51.92;47.67;59.36;;
73663;Laerm;61956;52.540;13.382;2023-03-19T14:09:36;52.12;47.51;63.41;;
73663;Laerm;61956;52.540;13.382;2023-03-19T14:12:28;52.00;47.66;58.19;;
73663;Laerm;61956;52.540;13.382;2023-03-19T14:15:12;51.80;47.36;59.31;;
73663;Laerm;61956;52.540;13.382;2023-03-19T14:17:53;51.55;47.18;56.88;;
73663;Laerm;61956;52.540;13.382;2023-03-19T14:20:26;51.71;47.33;56.20;;
73663;Laerm;61956;52.540;13.382;2023-03-19T14:23:15;51.79;47.60;57.15;;
73663;Laerm;61956;52.540;13.382;2023-03-19T14:26:14;52.01;47.27;61.83;;
73663;Laerm;61956;52.540;13.382;2023-03-19T14:28:58;51.60;47.14;56.87;;
73663;Laerm;61956;52.540;13.382;2023-03-19T14:31:42;57.67;47.70;75.06;;